Meadowbrook, Alabama
Current Conditions -  °F | °C
As of 2:53 AM on Friday 28 Nov 2014 (Local Time) from KBHM Reporting Station
Clear Clear  
Wind Chill: 28°   Ceiling: Unl
Heat Index: 28°   Visibility: 10mi
Dew Point: 24°   Wind: 3mph
Humidity: 85%   Direction: 360°N
Pressure: 30.44"   Gusts: NA
Location:  33.3752°N, 86.7086°W
Report Text: KBHM 280853Z 36003KT 10SM CLR M02/M04 A3044 RMK AO2 SLP312 T10221044 57000
Loading
Personal Weather Stations






























Interactive Weather Map New forecast layout! Learn more

10-Day Weather Forecast

Advertisements
Track Severe Weather on mobile